Time;durP1;ratioP1;P1;durP2;ratioP2;P2;SDS_P1;SDS_P2;PMS_P1;PMS_P2;Temp;Humidity;BMP_temperature;BMP_pressure;BME280_temperature;BME280_humidity;BME280_pressure;Samples;Min_cycle;Max_cycle;Signal;HPM_P1;HPM_P2
2023/07/31 03:02:04;;;;;;;0.60;0.50;;;23.40;53.70;;;;;;5146324;23;45827;-85
2023/07/31 03:04:29;;;;;;;1.65;0.45;;;23.40;53.90;;;;;;4843761;28;45046;-85
2023/07/31 03:06:55;;;;;;;1.55;0.47;;;23.40;53.80;;;;;;4860194;29;44966;-85
2023/07/31 03:09:20;;;;;;;0.57;0.45;;;23.40;53.80;;;;;;4849549;29;45014;-84
2023/07/31 03:11:46;;;;;;;0.50;0.40;;;23.40;53.80;;;;;;4853963;28;47245;-85
2023/07/31 03:14:11;;;;;;;0.80;0.60;;;23.40;53.80;;;;;;4866975;28;45727;-85
2023/07/31 03:16:37;;;;;;;1.60;0.75;;;23.40;53.80;;;;;;4856305;28;45039;-85
2023/07/31 03:19:02;;;;;;;1.55;0.65;;;23.40;53.80;;;;;;4874713;28;44953;-86
2023/07/31 03:21:28;;;;;;;1.40;0.65;;;23.40;53.80;;;;;;4875147;28;47351;-85
2023/07/31 03:23:54;;;;;;;0.88;0.47;;;23.40;53.70;;;;;;4847390;28;45229;-85
2023/07/31 03:26:19;;;;;;;1.33;0.70;;;23.40;53.70;;;;;;4844866;28;45416;-85
2023/07/31 03:28:45;;;;;;;1.38;0.50;;;23.40;53.70;;;;;;4883824;28;44841;-85
2023/07/31 03:31:11;;;;;;;1.20;0.55;;;23.40;53.70;;;;;;4859886;28;47388;-85
2023/07/31 03:33:36;;;;;;;2.00;0.63;;;23.40;53.70;;;;;;4864759;28;44971;-85
2023/07/31 03:36:03;;;;;;;1.33;0.68;;;23.40;54.30;;;;;;4846253;28;45087;-85
2023/07/31 03:38:28;;;;;;;1.15;0.68;;;23.40;53.70;;;;;;4888502;28;44978;-85
2023/07/31 03:40:54;;;;;;;1.52;0.70;;;23.40;53.70;;;;;;4848057;28;47319;-85
2023/07/31 03:43:19;;;;;;;2.00;0.77;;;23.40;53.70;;;;;;4851066;28;45066;-85
2023/07/31 03:45:45;;;;;;;1.17;0.55;;;23.40;53.70;;;;;;4864252;28;44921;-85
2023/07/31 03:48:10;;;;;;;1.52;0.60;;;23.40;53.70;;;;;;4861990;28;45836;-85
2023/07/31 03:50:36;;;;;;;1.95;0.60;;;23.40;53.60;;;;;;4877895;28;47838;-85
2023/07/31 03:53:01;;;;;;;0.80;0.52;;;23.40;53.60;;;;;;4881862;28;44816;-85
2023/07/31 03:55:27;;;;;;;2.08;0.55;;;23.40;53.60;;;;;;4879010;28;44961;-84
2023/07/31 03:57:54;;;;;;;1.23;0.60;;;23.40;53.60;;;;;;4890678;28;44771;-86
2023/07/31 04:00:20;;;;;;;0.77;0.50;;;23.40;53.60;;;;;;4860593;28;45845;-86
2023/07/31 04:02:48;;;;;;;0.80;0.50;;;23.40;53.60;;;;;;4862791;28;44818;-85
2023/07/31 04:05:14;;;;;;;1.13;0.68;;;23.40;53.60;;;;;;4899441;28;44944;-85
2023/07/31 04:07:40;;;;;;;1.55;0.50;;;23.40;53.60;;;;;;4882463;28;45181;-85
2023/07/31 04:10:06;;;;;;;0.95;0.50;;;23.40;53.60;;;;;;4896630;28;47151;-86
2023/07/31 04:12:31;;;;;;;1.42;0.60;;;23.40;53.60;;;;;;4895189;28;44986;-86
2023/07/31 04:14:57;;;;;;;0.93;0.60;;;23.40;53.60;;;;;;4853007;28;44944;-86
2023/07/31 04:17:22;;;;;;;1.40;0.70;;;23.40;53.60;;;;;;4845166;28;45259;-85
2023/07/31 04:19:48;;;;;;;1.02;0.60;;;23.40;53.60;;;;;;4868582;28;47625;-85
2023/07/31 04:22:14;;;;;;;0.65;0.52;;;23.40;53.60;;;;;;4889797;28;45035;-85
2023/07/31 04:24:39;;;;;;;1.17;0.60;;;23.40;54.10;;;;;;4896607;28;44989;-84
2023/07/31 04:27:05;;;;;;;1.15;0.70;;;23.40;53.50;;;;;;4863160;28;45298;-85
2023/07/31 04:29:31;;;;;;;1.10;0.60;;;23.40;53.50;;;;;;4851268;28;47418;-85
2023/07/31 04:31:56;;;;;;;1.10;0.60;;;23.40;53.50;;;;;;4843427;28;45229;-86
2023/07/31 04:34:22;;;;;;;1.33;0.65;;;23.40;53.50;;;;;;4862039;28;45113;-86
2023/07/31 04:36:47;;;;;;;1.48;0.55;;;23.40;53.50;;;;;;4844749;28;45506;-86
2023/07/31 04:39:13;;;;;;;1.25;0.80;;;23.40;53.50;;;;;;4882022;28;46520;-86
2023/07/31 04:41:38;;;;;;;0.80;0.65;;;23.40;53.50;;;;;;4877700;28;45070;-85
2023/07/31 04:44:04;;;;;;;0.95;0.60;;;23.40;53.50;;;;;;4867004;28;44896;-85
2023/07/31 04:46:29;;;;;;;1.52;0.90;;;23.30;53.40;;;;;;4870895;28;45368;-85
2023/07/31 04:48:55;;;;;;;1.30;0.70;;;23.40;53.50;;;;;;4869444;28;45652;-85
2023/07/31 04:51:21;;;;;;;1.25;0.77;;;23.40;53.50;;;;;;4863402;28;45267;-85
2023/07/31 04:53:47;;;;;;;2.30;0.70;;;23.40;53.40;;;;;;4881884;28;44912;-85
2023/07/31 04:56:13;;;;;;;1.15;0.40;;;23.30;53.40;;;;;;4875815;28;44895;-86
2023/07/31 04:58:39;;;;;;;1.40;0.63;;;23.40;53.40;;;;;;4851321;28;47457;-86
2023/07/31 05:01:05;;;;;;;2.47;0.68;;;23.40;53.50;;;;;;4872826;28;45046;-85
2023/07/31 05:03:30;;;;;;;0.88;0.60;;;23.30;53.40;;;;;;4860584;29;44950;-85
2023/07/31 05:05:56;;;;;;;1.42;0.60;;;23.30;53.40;;;;;;4843697;28;46005;-86
2023/07/31 05:08:21;;;;;;;0.55;0.40;;;23.40;53.40;;;;;;4876843;28;47452;-85
2023/07/31 05:10:47;;;;;;;0.80;0.40;;;23.40;53.40;;;;;;4871344;29;45127;-85
2023/07/31 05:13:13;;;;;;;1.17;0.68;;;23.40;53.40;;;;;;4877450;28;45057;-87
2023/07/31 05:15:38;;;;;;;2.78;0.77;;;23.30;53.30;;;;;;4854415;28;45449;-85
2023/07/31 05:18:04;;;;;;;1.80;0.50;;;23.40;53.40;;;;;;4862140;28;45310;-85
2023/07/31 05:20:30;;;;;;;1.52;0.60;;;23.40;53.40;;;;;;4857757;28;45123;-85
2023/07/31 05:22:55;;;;;;;1.50;0.73;;;23.40;53.40;;;;;;4845369;29;45111;-85
2023/07/31 05:25:21;;;;;;;1.02;0.50;;;23.30;53.30;;;;;;4860006;28;44954;-87
2023/07/31 05:27:46;;;;;;;2.60;0.60;;;23.30;53.30;;;;;;4875455;28;48085;-85
2023/07/31 05:30:12;;;;;;;1.13;0.65;;;23.30;53.40;;;;;;4854114;28;45009;-86
2023/07/31 05:32:37;;;;;;;0.77;0.52;;;23.30;53.30;;;;;;4870391;28;45272;-85
2023/07/31 05:35:04;;;;;;;0.95;0.40;;;23.30;53.30;;;;;;4874040;28;44695;-86
2023/07/31 05:37:30;;;;;;;1.33;0.70;;;23.30;53.30;;;;;;4860290;28;45168;-85
2023/07/31 05:39:55;;;;;;;2.80;0.73;;;23.40;53.40;;;;;;4859735;28;45024;-85
2023/07/31 05:42:21;;;;;;;0.85;0.50;;;23.30;53.30;;;;;;4890174;28;45297;-85
2023/07/31 05:44:47;;;;;;;1.45;0.68;;;23.30;53.30;;;;;;4860489;29;45076;-85
2023/07/31 05:47:12;;;;;;;1.45;0.50;;;23.30;53.30;;;;;;4865469;28;47257;-87
2023/07/31 05:49:38;;;;;;;1.55;0.75;;;23.30;53.30;;;;;;4875089;28;45365;-86
2023/07/31 05:52:04;;;;;;;1.15;0.50;;;23.30;53.30;;;;;;4848908;28;45546;-85
2023/07/31 05:54:30;;;;;;;0.52;0.45;;;23.30;53.30;;;;;;4855795;28;44711;-86
2023/07/31 05:56:55;;;;;;;0.70;0.65;;;23.30;53.30;;;;;;4855339;28;47030;-85
2023/07/31 05:59:21;;;;;;;1.35;0.60;;;23.30;53.30;;;;;;4858754;28;45689;-85
2023/07/31 06:01:46;;;;;;;1.55;0.50;;;23.30;53.30;;;;;;4875782;28;45054;-86
2023/07/31 06:04:12;;;;;;;1.10;0.52;;;23.30;53.30;;;;;;4874078;28;45104;-85
2023/07/31 06:06:38;;;;;;;0.98;0.60;;;23.30;53.30;;;;;;4871553;28;45486;-85
2023/07/31 06:09:03;;;;;;;1.60;0.80;;;23.30;53.30;;;;;;4860432;28;45697;-85
2023/07/31 06:11:29;;;;;;;0.70;0.55;;;23.30;53.30;;;;;;4868457;28;45259;-85
2023/07/31 06:13:55;;;;;;;1.63;0.80;;;23.30;53.30;;;;;;4888785;28;45099;-85
2023/07/31 06:16:21;;;;;;;0.88;0.50;;;23.30;53.30;;;;;;4866852;28;45682;-85
2023/07/31 06:18:47;;;;;;;0.75;0.40;;;23.30;53.30;;;;;;4858476;28;45301;-86
2023/07/31 06:21:12;;;;;;;0.80;0.60;;;23.30;53.30;;;;;;4854167;28;45177;-85
2023/07/31 06:23:38;;;;;;;0.50;0.50;;;23.30;53.30;;;;;;4856558;28;45148;-85
2023/07/31 06:26:03;;;;;;;0.90;0.73;;;23.30;53.20;;;;;;4853463;28;47001;-86
2023/07/31 06:28:29;;;;;;;1.15;0.50;;;23.30;53.30;;;;;;4859147;28;45161;-85
2023/07/31 06:30:55;;;;;;;0.85;0.60;;;23.30;53.20;;;;;;4853447;28;45050;-85
2023/07/31 06:33:20;;;;;;;1.55;0.73;;;23.30;53.20;;;;;;4862248;28;44997;-85
2023/07/31 06:35:46;;;;;;;1.13;0.70;;;23.30;53.20;;;;;;4866698;28;46814;-86
2023/07/31 06:38:12;;;;;;;1.52;0.50;;;23.30;53.20;;;;;;4881132;28;45003;-85
2023/07/31 06:40:37;;;;;;;0.60;0.43;;;23.30;53.30;;;;;;4854615;29;45249;-85
2023/07/31 06:43:08;;;;;;;1.17;0.60;;;23.30;53.20;;;;;;4859828;29;45022;-85
2023/07/31 06:45:34;;;;;;;2.13;0.70;;;23.30;53.30;;;;;;4836804;29;47315;-86
2023/07/31 06:48:01;;;;;;;1.35;0.60;;;23.30;53.20;;;;;;4874071;28;45300;-85
2023/07/31 06:50:31;;;;;;;0.82;0.63;;;23.30;53.20;;;;;;4869784;28;45004;-85
2023/07/31 06:52:56;;;;;;;2.50;0.82;;;23.30;53.20;;;;;;4863873;28;45263;-85
2023/07/31 06:55:25;;;;;;;1.58;0.70;;;23.30;53.20;;;;;;4856428;28;47033;-86
2023/07/31 06:57:52;;;;;;;0.85;0.55;;;23.30;53.30;;;;;;4859813;29;45029;-85
2023/07/31 07:00:20;;;;;;;1.38;0.68;;;23.30;53.20;;;;;;4852376;28;45303;-86
2023/07/31 07:02:48;;;;;;;0.47;0.40;;;23.30;53.20;;;;;;4856210;28;45737;-84
2023/07/31 07:05:14;;;;;;;0.90;0.80;;;23.30;53.20;;;;;;4852625;28;47122;-85
2023/07/31 07:07:40;;;;;;;1.10;0.57;;;23.30;53.20;;;;;;4870076;28;44680;-85
2023/07/31 07:10:06;;;;;;;0.85;0.45;;;23.30;53.20;;;;;;4854094;28;45147;-86
2023/07/31 07:12:32;;;;;;;1.65;0.90;;;23.30;53.20;;;;;;4866249;28;45591;-85
2023/07/31 07:14:58;;;;;;;1.50;0.70;;;23.30;53.20;;;;;;4860567;29;46281;-85
2023/07/31 07:17:24;;;;;;;1.38;0.77;;;23.30;53.20;;;;;;4867680;28;44695;-85
2023/07/31 07:19:50;;;;;;;1.27;0.60;;;23.30;53.20;;;;;;4858472;29;44836;-86
2023/07/31 07:22:15;;;;;;;1.27;0.75;;;23.30;53.20;;;;;;4835578;28;45299;-84
2023/07/31 07:24:41;;;;;;;0.85;0.55;;;23.30;53.20;;;;;;4872308;28;46799;-85
2023/07/31 07:27:06;;;;;;;1.73;0.80;;;23.30;53.20;;;;;;4838008;28;45128;-85
2023/07/31 07:29:34;;;;;;;0.77;0.43;;;23.30;53.20;;;;;;4875797;28;45182;-85
2023/07/31 07:31:59;;;;;;;1.48;0.57;;;23.30;53.10;;;;;;4852648;28;45087;-85
2023/07/31 07:34:28;;;;;;;2.05;0.90;;;23.30;53.10;;;;;;4874884;28;46111;-85
2023/07/31 07:36:54;;;;;;;1.55;0.70;;;23.30;53.10;;;;;;4868236;28;45303;-85
2023/07/31 07:39:20;;;;;;;1.30;0.70;;;23.30;53.10;;;;;;4862582;28;44999;-85
2023/07/31 07:41:46;;;;;;;0.88;0.70;;;23.30;53.10;;;;;;4857253;28;45110;-84
2023/07/31 07:44:12;;;;;;;1.98;0.70;;;23.30;53.10;;;;;;4858810;28;47006;-84
2023/07/31 07:46:38;;;;;;;1.40;0.68;;;23.30;53.10;;;;;;4852749;28;45155;-85
2023/07/31 07:49:04;;;;;;;1.33;0.93;;;23.30;53.20;;;;;;4862813;28;45105;-85
2023/07/31 07:51:31;;;;;;;1.17;0.63;;;23.30;53.10;;;;;;4850219;28;46362;-85
2023/07/31 07:53:57;;;;;;;1.92;0.73;;;23.30;53.10;;;;;;4875076;28;45292;-85
2023/07/31 07:56:23;;;;;;;0.65;0.52;;;23.30;53.10;;;;;;4841388;28;44956;-85
2023/07/31 07:58:50;;;;;;;1.02;0.82;;;23.30;53.10;;;;;;4873891;28;44970;-85
2023/07/31 08:01:15;;;;;;;1.58;0.82;;;23.30;53.10;;;;;;4867852;28;45090;-85
2023/07/31 08:03:41;;;;;;;1.98;0.93;;;23.30;53.10;;;;;;4842787;28;47073;-84
2023/07/31 08:06:09;;;;;;;1.10;0.70;;;23.30;53.10;;;;;;4886408;28;45122;-85
2023/07/31 08:08:35;;;;;;;1.17;0.80;;;23.30;53.10;;;;;;4856459;28;45323;-84
2023/07/31 08:11:00;;;;;;;3.05;0.82;;;23.30;53.10;;;;;;4857433;28;45021;-85
2023/07/31 08:13:26;;;;;;;1.40;0.77;;;23.30;53.10;;;;;;4877420;28;45400;-84
2023/07/31 08:15:51;;;;;;;1.50;0.80;;;23.30;53.10;;;;;;4884406;28;44924;-84
2023/07/31 08:18:17;;;;;;;1.77;0.90;;;23.30;53.10;;;;;;4906067;28;44699;-85
2023/07/31 08:20:43;;;;;;;1.73;0.65;;;23.30;53.10;;;;;;4873835;28;45544;-84
2023/07/31 08:23:09;;;;;;;1.00;0.70;;;23.30;53.10;;;;;;4855085;28;46711;-84
2023/07/31 08:25:35;;;;;;;0.80;0.77;;;23.30;53.10;;;;;;4860463;29;45054;-85
2023/07/31 08:28:01;;;;;;;1.98;0.95;;;23.30;53.10;;;;;;4844103;28;45075;-84
2023/07/31 08:30:30;;;;;;;1.95;1.10;;;23.30;53.10;;;;;;4866695;28;45247;-87
2023/07/31 08:32:56;;;;;;;1.90;0.80;;;23.30;53.10;;;;;;4857901;28;47117;-85
2023/07/31 08:35:21;;;;;;;1.25;0.68;;;23.30;53.10;;;;;;4870871;28;45192;-85
2023/07/31 08:37:47;;;;;;;1.65;0.80;;;23.30;53.10;;;;;;4859829;29;44801;-85
2023/07/31 08:40:13;;;;;;;1.75;0.80;;;23.20;53.00;;;;;;4839801;29;45292;-85
2023/07/31 08:42:45;;;;;;;1.98;0.88;;;23.20;53.10;;;;;;4872785;28;46310;-85
2023/07/31 08:45:17;;;;;;;0.90;0.60;;;23.30;53.10;;;;;;4870613;28;45358;-85
2023/07/31 08:47:48;;;;;;;1.00;0.77;;;23.30;53.10;;;;;;4871965;28;44972;-85
2023/07/31 08:50:14;;;;;;;1.75;0.50;;;23.30;53.10;;;;;;4840210;28;45311;-86
2023/07/31 08:52:39;;;;;;;1.20;0.65;;;23.30;53.10;;;;;;4856273;28;47064;-85
2023/07/31 08:55:08;;;;;;;1.80;1.00;;;23.30;53.10;;;;;;4856532;28;45097;-87
2023/07/31 08:57:35;;;;;;;1.58;0.85;;;23.30;53.10;;;;;;4858036;28;45121;-85
2023/07/31 09:00:01;;;;;;;1.63;0.70;;;23.30;53.10;;;;;;4844064;29;45016;-84
2023/07/31 09:02:31;;;;;;;2.45;0.95;;;23.20;53.00;;;;;;4850294;28;45008;-85
2023/07/31 09:04:58;;;;;;;1.33;0.90;;;23.30;53.10;;;;;;4843226;28;45063;-84
2023/07/31 09:07:23;;;;;;;3.95;1.08;;;23.30;53.10;;;;;;4840185;29;45170;-84
2023/07/31 09:09:49;;;;;;;3.72;1.08;;;23.20;53.10;;;;;;4859144;28;44996;-84
2023/07/31 09:12:14;;;;;;;3.08;0.90;;;23.30;53.10;;;;;;4873000;28;45537;-84
2023/07/31 09:14:40;;;;;;;1.90;1.00;;;23.30;53.10;;;;;;4885238;28;45263;-84
2023/07/31 09:17:05;;;;;;;0.98;0.68;;;23.20;53.00;;;;;;4884294;28;45163;-84
2023/07/31 09:19:37;;;;;;;1.67;0.90;;;23.30;53.10;;;;;;4857254;28;45073;-84
2023/07/31 09:22:03;;;;;;;2.15;1.15;;;23.30;53.10;;;;;;4855661;28;47110;-84
2023/07/31 09:24:30;;;;;;;2.38;0.90;;;23.30;53.10;;;;;;4859575;28;45226;-86
2023/07/31 09:26:56;;;;;;;2.05;0.75;;;23.30;53.10;;;;;;4867041;29;44995;-84
2023/07/31 09:29:22;;;;;;;1.30;0.95;;;23.30;53.10;;;;;;4874081;28;45403;-83
2023/07/31 09:31:47;;;;;;;1.70;0.80;;;23.30;53.10;;;;;;4852307;28;46351;-84
2023/07/31 09:34:16;;;;;;;0.98;0.77;;;23.20;53.00;;;;;;4858552;28;44989;-84
2023/07/31 09:36:48;;;;;;;2.95;0.85;;;23.30;53.10;;;;;;4854448;28;47851;-84
2023/07/31 09:39:15;;;;;;;2.03;0.80;;;23.30;53.10;;;;;;4873995;28;45277;-84
2023/07/31 09:41:48;;;;;;;1.35;0.75;;;23.30;53.10;;;;;;4853138;28;46833;-84
2023/07/31 09:44:13;;;;;;;1.23;0.73;;;23.30;53.10;;;;;;4874990;28;44893;-83
2023/07/31 09:46:39;;;;;;;0.98;0.75;;;23.30;53.10;;;;;;4867129;29;45065;-83
2023/07/31 09:49:11;;;;;;;2.92;1.13;;;23.30;53.10;;;;;;4874511;28;45174;-83
2023/07/31 09:51:41;;;;;;;2.17;1.07;;;23.30;53.00;;;;;;4867634;28;46348;-84
2023/07/31 09:54:14;;;;;;;2.47;0.90;;;23.30;53.10;;;;;;4872056;28;44704;-84
2023/07/31 09:56:47;;;;;;;2.55;0.93;;;23.30;53.00;;;;;;4884578;28;45409;-84
2023/07/31 09:59:15;;;;;;;3.20;1.13;;;23.30;53.60;;;;;;4857935;28;45778;-83
2023/07/31 10:01:41;;;;;;;1.85;0.82;;;23.30;53.10;;;;;;4863296;28;46360;-85
2023/07/31 10:04:10;;;;;;;1.70;1.00;;;23.30;53.10;;;;;;4872707;28;46453;-83
2023/07/31 10:06:36;;;;;;;2.72;0.80;;;23.30;53.10;;;;;;4869668;28;45233;-83
2023/07/31 10:09:04;;;;;;;0.90;0.70;;;23.30;53.10;;;;;;4857760;28;44975;-82
2023/07/31 10:11:30;;;;;;;1.15;0.80;;;23.30;53.10;;;;;;4885486;28;47121;-84
2023/07/31 10:13:55;;;;;;;1.65;1.10;;;23.30;53.10;;;;;;4860473;28;44963;-85
2023/07/31 10:16:21;;;;;;;1.90;0.90;;;23.30;53.10;;;;;;4868296;28;45217;-85
2023/07/31 10:18:47;;;;;;;1.65;0.80;;;23.30;53.10;;;;;;4857932;28;45446;-84
2023/07/31 10:21:12;;;;;;;1.73;1.00;;;23.30;53.10;;;;;;4885208;28;46603;-84
2023/07/31 10:23:38;;;;;;;2.38;1.08;;;23.30;53.10;;;;;;4860212;28;44767;-84
2023/07/31 10:26:05;;;;;;;2.92;0.80;;;23.30;53.10;;;;;;4872216;28;45161;-84
2023/07/31 10:28:31;;;;;;;3.25;1.10;;;23.30;53.10;;;;;;4862536;29;45492;-83
2023/07/31 10:30:56;;;;;;;1.92;0.90;;;23.30;53.00;;;;;;4851433;28;47111;-83
2023/07/31 10:33:22;;;;;;;2.03;1.30;;;23.30;53.00;;;;;;4855750;28;45429;-84
2023/07/31 10:35:48;;;;;;;2.60;1.10;;;23.30;53.00;;;;;;4868688;28;45254;-84
2023/07/31 10:38:14;;;;;;;1.35;0.82;;;23.30;53.00;;;;;;4875843;28;44981;-83
2023/07/31 10:40:39;;;;;;;1.90;1.17;;;23.30;53.00;;;;;;4838052;29;46953;-84
2023/07/31 10:43:05;;;;;;;2.17;1.10;;;23.30;53.00;;;;;;4871716;28;44716;-84
2023/07/31 10:45:38;;;;;;;1.60;0.80;;;23.30;53.00;;;;;;4855073;29;44795;-83
2023/07/31 10:48:07;;;;;;;;;;;23.30;52.90;;;;;;4873254;28;45005;-83
2023/07/31 10:50:37;;;;;;;1.67;1.00;;;23.30;53.00;;;;;;4869718;28;45105;-84
2023/07/31 10:53:03;;;;;;;1.73;1.00;;;23.30;53.00;;;;;;4874247;28;44956;-83
2023/07/31 10:55:42;;;;;;;1.73;0.90;;;23.30;53.00;;;;;;4856021;28;45006;-84
2023/07/31 10:58:09;;;;;;;2.08;1.05;;;23.30;53.00;;;;;;4874594;28;45081;-83
2023/07/31 11:00:37;;;;;;;3.67;1.20;;;23.30;53.00;;;;;;4868589;28;45375;-85
2023/07/31 11:03:04;;;;;;;1.75;1.00;;;23.30;53.00;;;;;;4878491;28;45148;-84
2023/07/31 11:05:48;;;;;;;1.73;1.00;;;23.30;53.00;;;;;;4886622;28;45300;-84
2023/07/31 11:08:17;;;;;;;2.03;0.85;;;23.30;52.90;;;;;;4909646;28;45103;-83
2023/07/31 11:10:43;;;;;;;1.40;1.10;;;23.30;53.00;;;;;;4885858;28;45110;-83
2023/07/31 11:13:09;;;;;;;1.58;0.90;;;23.30;53.00;;;;;;4878065;28;44924;-83
2023/07/31 11:15:35;;;;;;;1.40;1.00;;;23.30;53.00;;;;;;4854373;28;45118;-85
2023/07/31 11:18:05;;;;;;;1.77;0.93;;;23.30;53.00;;;;;;4877681;28;45167;-84
2023/07/31 11:20:32;;;;;;;2.38;0.98;;;23.40;53.00;;;;;;4873822;28;45411;-84
2023/07/31 11:23:02;;;;;;;2.30;0.93;;;23.30;53.00;;;;;;4891679;28;44767;-84
2023/07/31 11:25:31;;;;;;;1.77;0.93;;;23.40;53.00;;;;;;4872866;28;45386;-84
2023/07/31 11:28:03;;;;;;;1.77;0.80;;;23.30;53.00;;;;;;4852797;28;44900;-84
2023/07/31 11:30:28;;;;;;;1.60;1.20;;;23.30;53.00;;;;;;4869645;28;45835;-85
2023/07/31 11:32:55;;;;;;;2.05;1.15;;;23.30;53.00;;;;;;4844396;28;45129;-83
2023/07/31 11:35:21;;;;;;;1.10;0.90;;;23.30;53.00;;;;;;4873160;28;45010;-83
2023/07/31 11:37:46;;;;;;;1.40;0.98;;;23.30;53.00;;;;;;4872731;28;44951;-84
2023/07/31 11:40:12;;;;;;;1.58;0.95;;;23.30;53.00;;;;;;4873956;28;45591;-84
2023/07/31 11:42:40;;;;;;;1.88;1.00;;;23.30;53.00;;;;;;4890677;28;45001;-84
2023/07/31 11:45:09;;;;;;;2.55;1.30;;;23.30;53.00;;;;;;4872420;28;44984;-85
2023/07/31 11:47:36;;;;;;;2.83;1.10;;;23.40;53.00;;;;;;4840801;28;44851;-83
2023/07/31 11:50:03;;;;;;;1.73;1.02;;;23.40;53.00;;;;;;4892091;28;45122;-84
2023/07/31 11:52:37;;;;;;;1.52;0.98;;;23.30;53.00;;;;;;4865899;28;45164;-82
2023/07/31 11:55:09;;;;;;;2.20;1.08;;;23.30;53.00;;;;;;4882764;28;44939;-84
2023/07/31 11:57:35;;;;;;;1.45;0.98;;;23.30;53.00;;;;;;4879874;28;44796;-83
2023/07/31 12:00:00;;;;;;;1.25;1.00;;;23.30;53.00;;;;;;4877546;28;45433;-84
2023/07/31 12:02:26;;;;;;;2.25;1.10;;;23.30;53.00;;;;;;4856960;28;45306;-84
2023/07/31 12:04:51;;;;;;;1.70;1.15;;;23.40;53.00;;;;;;4881930;28;44912;-83
2023/07/31 12:07:17;;;;;;;1.77;1.05;;;23.30;53.00;;;;;;4859886;28;45412;-84
2023/07/31 12:09:55;;;;;;;1.77;1.15;;;23.30;53.00;;;;;;4895839;28;45262;-84
2023/07/31 12:12:22;;;;;;;1.60;1.08;;;23.30;52.90;;;;;;4874228;28;45064;-83
2023/07/31 12:14:47;;;;;;;1.85;0.90;;;23.30;53.00;;;;;;4878907;28;44712;-83
2023/07/31 12:17:13;;;;;;;0.70;0.70;;;23.30;53.00;;;;;;4841147;28;44779;-83
2023/07/31 12:19:39;;;;;;;1.65;0.98;;;23.30;53.00;;;;;;4876601;28;47068;-84
2023/07/31 12:22:11;;;;;;;3.75;1.00;;;23.30;53.00;;;;;;4849293;28;45058;-84
2023/07/31 12:24:37;;;;;;;1.48;0.90;;;23.30;52.90;;;;;;4894857;28;45158;-86
2023/07/31 12:27:09;;;;;;;1.95;1.08;;;23.30;53.00;;;;;;4858528;28;45294;-85
2023/07/31 12:29:38;;;;;;;1.63;0.97;;;23.40;53.00;;;;;;4884722;28;47215;-85
2023/07/31 12:32:04;;;;;;;1.58;0.80;;;23.30;53.00;;;;;;4869095;28;45110;-85
2023/07/31 12:34:29;;;;;;;1.98;1.00;;;23.30;53.00;;;;;;4846742;28;45243;-86
2023/07/31 12:36:55;;;;;;;2.15;1.00;;;23.30;53.00;;;;;;4860041;28;44808;-83
2023/07/31 12:39:21;;;;;;;2.78;1.05;;;23.30;53.00;;;;;;4863631;28;47345;-83
2023/07/31 12:41:46;;;;;;;2.08;0.90;;;23.30;53.00;;;;;;4873324;28;46012;-83
2023/07/31 12:44:12;;;;;;;2.22;1.20;;;23.30;53.00;;;;;;4862277;28;45624;-83
2023/07/31 12:46:37;;;;;;;1.38;0.93;;;23.30;53.00;;;;;;4839648;28;44934;-83
2023/07/31 12:49:03;;;;;;;1.83;1.02;;;23.30;53.60;;;;;;4861189;28;47519;-83
2023/07/31 12:51:28;;;;;;;1.35;0.80;;;23.30;53.00;;;;;;4858594;28;44986;-83
2023/07/31 12:53:54;;;;;;;1.77;0.95;;;23.30;53.00;;;;;;4843991;28;45323;-84
2023/07/31 12:56:19;;;;;;;1.98;1.00;;;23.30;53.00;;;;;;4860175;28;45274;-84
2023/07/31 12:58:45;;;;;;;1.83;1.15;;;23.30;53.00;;;;;;4848222;28;47140;-83
2023/07/31 13:01:11;;;;;;;1.65;0.93;;;23.40;53.00;;;;;;4869065;28;45307;-83
2023/07/31 13:03:37;;;;;;;1.73;0.95;;;23.30;53.00;;;;;;4843657;28;45014;-83
2023/07/31 13:06:03;;;;;;;2.63;1.27;;;23.30;53.00;;;;;;4874300;28;45608;-83
2023/07/31 13:08:28;;;;;;;2.33;1.30;;;23.40;53.00;;;;;;4886709;28;47188;-84
2023/07/31 13:10:54;;;;;;;1.15;1.00;;;23.40;53.00;;;;;;4864600;28;45664;-83
2023/07/31 13:13:19;;;;;;;1.85;0.90;;;23.40;53.00;;;;;;4867310;28;44996;-83
2023/07/31 13:15:45;;;;;;;1.98;1.23;;;23.40;53.00;;;;;;4839307;28;45330;-84
2023/07/31 13:18:11;;;;;;;1.67;1.20;;;23.40;53.00;;;;;;4882061;28;47328;-84
2023/07/31 13:20:36;;;;;;;1.70;1.15;;;23.30;52.90;;;;;;4877471;28;44985;-83
2023/07/31 13:23:02;;;;;;;1.92;1.17;;;23.30;52.90;;;;;;4852372;28;44935;-85
2023/07/31 13:25:28;;;;;;;1.83;0.88;;;23.40;53.00;;;;;;4876219;28;45024;-84
2023/07/31 13:27:53;;;;;;;1.73;1.20;;;23.40;53.00;;;;;;4867846;28;47914;-84
2023/07/31 13:30:19;;;;;;;1.13;1.00;;;23.30;52.90;;;;;;4873499;28;44999;-85
2023/07/31 13:32:45;;;;;;;1.88;1.17;;;23.40;53.00;;;;;;4865497;28;44944;-84
2023/07/31 13:35:11;;;;;;;3.30;1.10;;;23.40;53.00;;;;;;4860531;28;45138;-83
2023/07/31 13:37:37;;;;;;;1.70;0.90;;;23.40;52.90;;;;;;4848135;28;47027;-83
2023/07/31 13:40:06;;;;;;;1.33;0.93;;;23.40;52.90;;;;;;4849221;28;45234;-86
2023/07/31 13:42:32;;;;;;;2.17;1.25;;;23.40;52.90;;;;;;4863998;28;45002;-84
2023/07/31 13:44:58;;;;;;;1.98;1.10;;;23.40;53.50;;;;;;4853371;28;45000;-84
2023/07/31 13:47:23;;;;;;;1.88;1.27;;;23.40;52.90;;;;;;4857867;28;46518;-84
2023/07/31 13:49:49;;;;;;;1.80;1.08;;;23.40;52.90;;;;;;4850766;28;44760;-84
2023/07/31 13:52:14;;;;;;;1.85;0.98;;;23.40;52.90;;;;;;4878267;28;45102;-83
2023/07/31 13:54:42;;;;;;;1.23;1.02;;;23.40;52.90;;;;;;4866640;28;45023;-83
2023/07/31 13:57:08;;;;;;;1.50;1.10;;;23.40;52.90;;;;;;4848566;28;47577;-84
2023/07/31 13:59:34;;;;;;;1.90;1.02;;;23.40;52.90;;;;;;4848482;28;45049;-85
2023/07/31 14:01:59;;;;;;;1.30;0.88;;;23.40;52.90;;;;;;4855513;28;45001;-84
2023/07/31 14:04:25;;;;;;;2.20;1.30;;;23.40;53.00;;;;;;4882101;28;45118;-83
2023/07/31 14:06:50;;;;;;;1.25;1.00;;;23.40;52.90;;;;;;4862861;28;45577;-83
2023/07/31 14:09:17;;;;;;;1.55;1.02;;;23.40;52.90;;;;;;4883700;28;45134;-83
2023/07/31 14:11:43;;;;;;;1.60;1.05;;;23.40;52.90;;;;;;4859316;28;45114;-83
2023/07/31 14:14:09;;;;;;;1.77;1.17;;;23.40;52.90;;;;;;4879981;28;44978;-85
2023/07/31 14:16:35;;;;;;;3.33;1.40;;;23.40;52.90;;;;;;4868976;28;47109;-88
2023/07/31 14:19:01;;;;;;;1.27;1.17;;;23.40;52.90;;;;;;4877169;28;45562;-84
2023/07/31 14:21:26;;;;;;;2.10;1.23;;;23.40;52.90;;;;;;4862819;28;45043;-84
2023/07/31 14:23:52;;;;;;;2.30;1.30;;;23.40;52.90;;;;;;4884597;28;45563;-85
2023/07/31 14:26:18;;;;;;;1.70;1.33;;;23.40;52.80;;;;;;4864501;28;47893;-84
2023/07/31 14:28:43;;;;;;;2.28;1.38;;;23.40;52.80;;;;;;4870070;28;45036;-86
2023/07/31 14:31:09;;;;;;;1.83;1.38;;;23.40;52.80;;;;;;4867322;28;44973;-84
2023/07/31 14:33:35;;;;;;;2.10;1.15;;;23.40;52.80;;;;;;4879382;28;45097;-84
2023/07/31 14:36:01;;;;;;;3.80;1.17;;;23.40;52.80;;;;;;4853825;28;47028;-84
2023/07/31 14:38:26;;;;;;;2.72;1.10;;;23.40;52.80;;;;;;4878806;28;44956;-83
2023/07/31 14:40:52;;;;;;;1.65;1.30;;;23.40;52.80;;;;;;4847962;28;44936;-85
2023/07/31 14:43:17;;;;;;;1.45;0.90;;;23.40;52.80;;;;;;4864070;28;45161;-84
2023/07/31 14:45:43;;;;;;;2.55;1.30;;;23.40;52.80;;;;;;4856205;28;47277;-84
2023/07/31 14:48:08;;;;;;;1.23;1.10;;;23.40;52.80;;;;;;4847938;28;45252;-84
2023/07/31 14:50:34;;;;;;;2.10;1.55;;;23.40;52.80;;;;;;4872359;28;45164;-84
2023/07/31 14:53:00;;;;;;;1.98;1.30;;;23.40;52.80;;;;;;4844634;28;45350;-83
2023/07/31 14:55:25;;;;;;;0.85;0.82;;;23.50;52.90;;;;;;4862351;28;47214;-83
2023/07/31 14:57:51;;;;;;;1.33;0.98;;;23.40;52.80;;;;;;4887064;28;45322;-85
2023/07/31 15:00:17;;;;;;;1.52;1.08;;;23.50;52.90;;;;;;4871798;28;45135;-85
2023/07/31 15:02:42;;;;;;;1.10;0.93;;;23.40;52.80;;;;;;4877309;28;45019;-83
2023/07/31 15:05:08;;;;;;;1.58;1.10;;;23.40;53.40;;;;;;4878580;28;46411;-85
2023/07/31 15:07:34;;;;;;;2.35;1.10;;;23.40;52.90;;;;;;4861398;28;45014;-83
2023/07/31 15:10:00;;;;;;;1.50;1.10;;;23.40;52.90;;;;;;4881202;28;45020;-83
2023/07/31 15:12:26;;;;;;;2.22;1.05;;;23.40;52.90;;;;;;4858688;28;45304;-85
2023/07/31 15:14:52;;;;;;;1.92;1.20;;;23.40;52.90;;;;;;4866432;28;47062;-84
2023/07/31 15:17:17;;;;;;;1.85;1.20;;;23.40;52.90;;;;;;4871181;28;44808;-84
2023/07/31 15:19:43;;;;;;;2.80;1.58;;;23.40;52.90;;;;;;4880759;28;45009;-83
2023/07/31 15:22:09;;;;;;;1.73;1.20;;;23.40;52.90;;;;;;4840861;28;45409;-83
2023/07/31 15:24:34;;;;;;;1.55;1.02;;;23.40;53.00;;;;;;4877829;28;46792;-83
2023/07/31 15:27:02;;;;;;;1.25;1.05;;;23.40;52.90;;;;;;4858098;28;46055;-83
2023/07/31 15:29:28;;;;;;;1.85;0.82;;;23.40;52.90;;;;;;4867201;28;45067;-84
2023/07/31 15:31:53;;;;;;;1.88;0.95;;;23.40;52.90;;;;;;4870738;28;45078;-84
2023/07/31 15:34:19;;;;;;;1.48;1.20;;;23.40;52.90;;;;;;4860797;28;45197;-83
2023/07/31 15:36:48;;;;;;;1.40;1.20;;;23.40;52.90;;;;;;4880811;28;45068;-85
2023/07/31 15:39:13;;;;;;;2.03;1.30;;;23.40;52.90;;;;;;4874576;28;45133;-84
2023/07/31 15:41:39;;;;;;;1.77;1.30;;;23.40;53.00;;;;;;4877681;28;44743;-83
2023/07/31 15:44:05;;;;;;;2.28;1.30;;;23.40;52.90;;;;;;4881322;28;45486;-85